createdAt,value
2023-03-17T00:01:22.247Z,79.34
2023-03-17T00:03:51.521Z,79.25
2023-03-17T00:06:28.601Z,79.04
2023-03-17T00:08:57.471Z,78.40
2023-03-17T00:11:27.394Z,79.13
2023-03-17T00:13:55.392Z,79.60
2023-03-17T00:16:25.632Z,79.09
2023-03-17T00:18:54.616Z,79.41
2023-03-17T00:21:28.214Z,78.87
2023-03-17T00:23:56.316Z,78.72
2023-03-17T00:26:25.033Z,78.99
2023-03-17T00:28:52.974Z,78.93
2023-03-17T00:31:24.650Z,78.59
2023-03-17T00:33:55.728Z,78.99
2023-03-17T00:36:28.135Z,79.86
2023-03-17T00:38:56.046Z,79.42
2023-03-17T00:41:27.319Z,79.41
2023-03-17T00:43:55.356Z,79.84
2023-03-17T00:46:27.699Z,80.25
2023-03-17T00:48:59.602Z,80.21
2023-03-17T00:51:29.188Z,80.12
2023-03-17T00:53:56.996Z,81.26
2023-03-17T00:56:27.133Z,80.64
2023-03-17T00:58:54.821Z,81.40
2023-03-17T01:01:22.712Z,81.74
2023-03-17T01:03:50.369Z,81.17
2023-03-17T01:06:18.677Z,80.82
2023-03-17T01:08:47.932Z,81.28
2023-03-17T01:11:18.625Z,80.46
2023-03-17T01:13:48.505Z,80.95
2023-03-17T01:16:17.010Z,80.78
2023-03-17T01:18:45.583Z,81.81
2023-03-17T01:21:14.062Z,81.47
2023-03-17T01:23:42.222Z,81.22
2023-03-17T01:26:11.850Z,81.77
2023-03-17T01:28:39.475Z,81.96
2023-03-17T01:31:07.353Z,81.68
2023-03-17T01:33:35.118Z,82.19
2023-03-17T01:36:03.229Z,82.08
2023-03-17T01:38:31.227Z,81.25
2023-03-17T01:40:59.187Z,81.42
2023-03-17T01:43:30.700Z,81.99
2023-03-17T01:46:27.888Z,82.16
2023-03-17T01:49:19.933Z,81.52
2023-03-17T01:51:55.488Z,81.42
2023-03-17T01:54:36.378Z,82.14
2023-03-17T01:57:11.566Z,81.57
2023-03-17T01:59:45.372Z,81.43
2023-03-17T02:02:20.234Z,81.18
2023-03-17T02:04:47.954Z,81.56
2023-03-17T02:07:16.147Z,81.86
2023-03-17T02:09:44.564Z,82.10
2023-03-17T02:12:13.486Z,81.45
2023-03-17T02:14:44.066Z,81.18
2023-03-17T02:17:14.818Z,81.14
2023-03-17T02:19:43.401Z,82.23
2023-03-17T02:22:12.767Z,82.11
2023-03-17T02:24:43.898Z,81.81
2023-03-17T02:27:15.910Z,81.43
2023-03-17T02:29:46.207Z,81.74
2023-03-17T02:32:16.087Z,81.39
2023-03-17T02:34:44.075Z,81.76
2023-03-17T02:37:14.307Z,82.52
2023-03-17T02:39:42.541Z,82.35
2023-03-17T02:42:12.647Z,82.10
2023-03-17T02:44:41.251Z,82.88
2023-03-17T02:47:09.542Z,82.10
2023-03-17T02:49:40.217Z,82.10
2023-03-17T02:52:09.391Z,82.35
2023-03-17T02:54:38.354Z,82.00
2023-03-17T02:57:07.645Z,82.36
2023-03-17T02:59:35.286Z,82.97
2023-03-17T03:02:03.132Z,84.10
2023-03-17T03:04:30.765Z,83.48
2023-03-17T03:06:58.620Z,83.44
2023-03-17T03:09:26.393Z,83.12
2023-03-17T03:11:55.495Z,83.00
2023-03-17T03:14:23.520Z,82.97
2023-03-17T03:16:52.231Z,82.51
2023-03-17T03:19:19.810Z,82.33
2023-03-17T03:21:47.562Z,82.59
2023-03-17T03:24:15.146Z,82.86
2023-03-17T03:26:42.802Z,82.97
2023-03-17T03:29:12.594Z,82.42
2023-03-17T03:31:40.687Z,83.20
2023-03-17T03:34:08.357Z,82.60
2023-03-17T03:36:36.941Z,82.64
2023-03-17T03:39:04.648Z,82.61
2023-03-17T03:41:32.764Z,82.89
2023-03-17T03:44:00.419Z,82.11
2023-03-17T03:46:29.613Z,82.23
2023-03-17T03:48:57.284Z,82.59
2023-03-17T03:51:25.048Z,82.61
2023-03-17T03:53:52.624Z,81.74
2023-03-17T03:56:20.764Z,82.40
2023-03-17T03:58:48.637Z,81.67
2023-03-17T04:01:16.489Z,81.82
2023-03-17T04:03:47.405Z,81.85
2023-03-17T04:06:16.151Z,81.73
2023-03-17T04:08:43.964Z,81.26
2023-03-17T04:11:11.689Z,81.73
2023-03-17T04:13:39.380Z,81.26
2023-03-17T04:16:08.076Z,81.51
2023-03-17T04:18:35.774Z,81.37
2023-03-17T04:21:05.007Z,81.11
2023-03-17T04:23:32.585Z,81.21
2023-03-17T04:26:00.350Z,81.67
2023-03-17T04:28:27.946Z,81.27
2023-03-17T04:30:56.273Z,81.72
2023-03-17T04:33:23.869Z,81.62
2023-03-17T04:35:51.737Z,81.53
2023-03-17T04:38:20.783Z,81.39
2023-03-17T04:40:48.624Z,81.59
2023-03-17T04:43:16.881Z,81.74
2023-03-17T04:45:44.620Z,82.01
2023-03-17T04:48:12.254Z,82.43
2023-03-17T04:50:40.965Z,81.78
2023-03-17T04:53:09.116Z,82.23
2023-03-17T04:55:38.197Z,82.08
2023-03-17T04:58:05.779Z,81.82
2023-03-17T05:00:38.997Z,82.25
2023-03-17T05:03:20.059Z,82.55
2023-03-17T05:05:53.697Z,82.59
2023-03-17T05:08:21.280Z,82.66
2023-03-17T05:10:51.026Z,82.52
2023-03-17T05:13:19.750Z,82.29
2023-03-17T05:15:48.213Z,82.32
2023-03-17T05:18:16.204Z,82.79
2023-03-17T05:20:43.935Z,82.47
2023-03-17T05:23:11.668Z,82.46
2023-03-17T05:25:40.292Z,83.17
2023-03-17T05:28:10.694Z,82.65
2023-03-17T05:30:38.426Z,82.68
2023-03-17T05:33:07.809Z,82.64
2023-03-17T05:35:35.480Z,81.97
2023-03-17T05:38:03.195Z,82.69
2023-03-17T05:40:31.391Z,81.87
2023-03-17T05:42:59.348Z,81.82
2023-03-17T05:45:28.471Z,82.07
2023-03-17T05:47:56.304Z,82.42
2023-03-17T05:50:24.399Z,81.90
2023-03-17T05:52:52.271Z,81.88
2023-03-17T05:55:20.523Z,81.92
2023-03-17T05:57:48.518Z,81.91
2023-03-17T06:00:18.780Z,81.87
2023-03-17T06:02:48.352Z,81.50
2023-03-17T06:05:16.332Z,81.61
2023-03-17T06:07:54.067Z,80.82
2023-03-17T06:10:24.322Z,81.45
2023-03-17T06:12:52.792Z,81.14
2023-03-17T06:15:21.156Z,80.86
2023-03-17T06:17:50.372Z,80.77
2023-03-17T06:20:18.411Z,79.84
2023-03-17T06:23:02.141Z,79.47
2023-03-17T06:25:31.266Z,79.31
2023-03-17T06:28:02.512Z,79.50
2023-03-17T06:30:31.310Z,79.74
2023-03-17T06:33:00.569Z,80.22
2023-03-17T06:35:28.499Z,79.68
2023-03-17T06:37:56.422Z,80.22
2023-03-17T06:40:24.021Z,80.35
2023-03-17T06:42:51.893Z,81.29
2023-03-17T06:45:19.506Z,80.66
2023-03-17T06:47:47.293Z,80.42
2023-03-17T06:50:16.414Z,80.52
2023-03-17T06:52:46.620Z,80.66
2023-03-17T06:55:15.084Z,80.58
2023-03-17T06:57:43.277Z,81.50
2023-03-17T07:00:13.981Z,81.21
2023-03-17T07:02:42.296Z,81.33
2023-03-17T07:05:10.230Z,80.34
2023-03-17T07:07:39.492Z,80.16
2023-03-17T07:10:10.220Z,79.01
2023-03-17T07:12:38.428Z,77.68
2023-03-17T07:15:06.856Z,77.83
2023-03-17T07:17:34.628Z,76.94
2023-03-17T07:20:02.266Z,76.55
2023-03-17T07:22:30.359Z,75.98
2023-03-17T07:24:59.393Z,75.95
2023-03-17T07:27:27.278Z,75.67
2023-03-17T07:29:54.926Z,75.34
2023-03-17T07:32:22.910Z,74.60
2023-03-17T07:34:50.517Z,74.22
2023-03-17T07:37:19.435Z,74.03
2023-03-17T07:39:48.200Z,73.43
2023-03-17T07:42:18.257Z,73.66
2023-03-17T07:44:45.945Z,73.17
2023-03-17T07:47:14.655Z,72.76
2023-03-17T07:49:42.697Z,73.16
2023-03-17T07:52:12.728Z,73.14
2023-03-17T07:54:42.986Z,73.00
2023-03-17T07:57:12.132Z,71.63
2023-03-17T07:59:41.637Z,71.46
2023-03-17T08:02:15.845Z,71.44
2023-03-17T08:04:44.174Z,71.71
2023-03-17T08:07:12.853Z,70.58
2023-03-17T08:09:40.819Z,70.36
2023-03-17T08:12:09.721Z,69.99
2023-03-17T08:14:37.469Z,70.27
2023-03-17T08:17:06.650Z,69.17
2023-03-17T08:19:34.927Z,69.73
2023-03-17T08:22:02.585Z,68.10
2023-03-17T08:24:30.535Z,67.24
2023-03-17T08:26:59.804Z,66.13
2023-03-17T08:29:29.248Z,65.59
2023-03-17T08:31:57.275Z,64.86
2023-03-17T08:34:26.719Z,64.12
2023-03-17T08:36:54.369Z,63.67
2023-03-17T08:39:22.038Z,64.26
2023-03-17T08:41:49.778Z,63.50
2023-03-17T08:44:17.852Z,63.39
2023-03-17T08:46:45.558Z,63.75
2023-03-17T08:49:13.799Z,63.23
2023-03-17T08:51:43.945Z,62.71
2023-03-17T08:54:12.977Z,62.03
2023-03-17T08:56:41.892Z,60.83
2023-03-17T08:59:10.974Z,60.51
2023-03-17T09:01:40.103Z,60.17
2023-03-17T09:04:08.015Z,60.58
2023-03-17T09:06:35.839Z,59.17
2023-03-17T09:09:05.260Z,58.86
2023-03-17T09:11:33.567Z,58.48
2023-03-17T09:14:01.429Z,57.46
2023-03-17T09:16:33.852Z,58.03
2023-03-17T09:19:01.823Z,57.30
2023-03-17T09:21:29.479Z,57.00
2023-03-17T09:23:57.384Z,58.50
2023-03-17T09:26:26.514Z,57.83
2023-03-17T09:28:54.509Z,58.90
2023-03-17T09:31:22.193Z,56.50
2023-03-17T09:33:50.041Z,55.67
2023-03-17T09:36:17.820Z,56.63
2023-03-17T09:38:45.632Z,54.59
2023-03-17T09:41:31.493Z,54.32
2023-03-17T09:44:11.145Z,54.58
2023-03-17T09:46:49.397Z,55.41
2023-03-17T09:49:20.958Z,54.69
2023-03-17T09:51:50.361Z,53.19
2023-03-17T09:54:27.003Z,52.73
2023-03-17T09:57:06.000Z,53.04
2023-03-17T09:59:36.912Z,52.81
2023-03-17T10:02:15.285Z,51.79
2023-03-17T10:04:45.034Z,50.64
2023-03-17T10:07:16.168Z,51.27
2023-03-17T10:09:49.413Z,48.06
2023-03-17T10:12:28.239Z,48.46
2023-03-17T10:15:01.759Z,48.92
2023-03-17T10:17:32.871Z,48.58
2023-03-17T10:20:05.672Z,47.29
2023-03-17T10:22:40.158Z,46.75
2023-03-17T10:25:14.691Z,46.51
2023-03-17T10:27:48.225Z,45.15
2023-03-17T10:30:18.416Z,45.45
2023-03-17T10:32:46.625Z,45.73
2023-03-17T10:35:16.316Z,45.07
2023-03-17T10:37:45.775Z,44.29
2023-03-17T10:40:23.423Z,44.62
2023-03-17T10:42:56.373Z,44.99
2023-03-17T10:45:29.046Z,44.43
2023-03-17T10:47:58.396Z,43.99
2023-03-17T10:50:28.707Z,44.89
2023-03-17T10:53:00.758Z,44.65
2023-03-17T10:55:32.666Z,44.97
2023-03-17T10:58:06.170Z,44.73
2023-03-17T11:00:36.428Z,43.36
2023-03-17T11:03:12.317Z,42.46
2023-03-17T11:05:40.296Z,41.61
2023-03-17T11:08:12.573Z,42.51
2023-03-17T11:10:41.587Z,41.36
2023-03-17T11:13:16.912Z,40.27
2023-03-17T11:15:49.266Z,40.84
2023-03-17T11:18:22.660Z,40.03
2023-03-17T11:20:57.394Z,40.35
2023-03-17T11:23:46.282Z,42.81
2023-03-17T11:26:34.283Z,40.27
2023-03-17T11:29:20.728Z,41.20
2023-03-17T11:31:58.738Z,40.82
2023-03-17T11:34:39.717Z,40.99
2023-03-17T11:37:23.803Z,40.97
2023-03-17T11:39:56.539Z,39.63
2023-03-17T11:42:28.529Z,38.77
2023-03-17T11:45:18.996Z,40.31
2023-03-17T11:48:06.366Z,40.04
2023-03-17T11:50:41.518Z,40.30
2023-03-17T11:53:32.155Z,39.21
2023-03-17T11:56:04.235Z,38.69
2023-03-17T11:58:38.897Z,39.54
2023-03-17T12:01:12.707Z,40.29
2023-03-17T12:03:46.145Z,40.19
2023-03-17T12:06:20.672Z,39.92
2023-03-17T12:08:53.429Z,39.93
2023-03-17T12:11:25.485Z,40.01
2023-03-17T12:13:59.431Z,38.95
2023-03-17T12:16:33.233Z,39.57
2023-03-17T12:19:08.032Z,38.09
2023-03-17T12:21:40.108Z,37.91
2023-03-17T12:24:14.316Z,37.16
2023-03-17T12:26:52.596Z,39.11
2023-03-17T12:29:26.388Z,40.03
2023-03-17T12:32:03.431Z,39.95
2023-03-17T12:34:37.796Z,40.27
2023-03-17T12:37:06.160Z,39.14
2023-03-17T12:39:36.113Z,39.47
2023-03-17T12:42:24.492Z,38.29
2023-03-17T12:45:07.069Z,38.16
2023-03-17T12:47:51.371Z,37.55
2023-03-17T12:50:34.195Z,36.16
2023-03-17T12:53:18.205Z,35.05
2023-03-17T12:55:50.221Z,36.08
2023-03-17T12:58:29.766Z,35.30
2023-03-17T13:01:07.088Z,35.39
2023-03-17T13:03:38.873Z,32.53
2023-03-17T13:06:09.436Z,34.53
2023-03-17T13:08:41.148Z,34.42
2023-03-17T13:11:18.624Z,35.61
2023-03-17T13:13:55.948Z,35.78
2023-03-17T13:16:29.200Z,34.73
2023-03-17T13:19:26.844Z,36.58
2023-03-17T13:22:36.057Z,36.84
2023-03-17T13:25:16.689Z,37.36
2023-03-17T13:27:46.547Z,38.23
2023-03-17T13:30:44.235Z,38.39
2023-03-17T13:33:24.167Z,37.78
2023-03-17T13:36:05.185Z,39.40
2023-03-17T13:39:15.094Z,38.53
2023-03-17T13:42:01.109Z,38.35
2023-03-17T13:44:47.486Z,37.35
2023-03-17T13:47:29.609Z,37.38
2023-03-17T13:50:03.924Z,38.94
2023-03-17T13:52:35.698Z,38.27
2023-03-17T13:55:25.753Z,38.42
2023-03-17T13:58:18.125Z,39.38
2023-03-17T14:00:48.907Z,39.91
2023-03-17T14:03:20.499Z,40.04
2023-03-17T14:05:50.968Z,40.02
2023-03-17T14:08:28.440Z,40.10
2023-03-17T14:10:57.580Z,40.00
2023-03-17T14:13:28.477Z,39.51
2023-03-17T14:16:03.787Z,39.29
2023-03-17T14:18:35.220Z,39.91
2023-03-17T14:21:09.453Z,41.10
2023-03-17T14:23:40.791Z,40.82
2023-03-17T14:26:12.578Z,40.62
2023-03-17T14:28:41.098Z,41.10
2023-03-17T14:31:09.010Z,41.00
2023-03-17T14:33:39.658Z,40.86
2023-03-17T14:36:10.813Z,41.43
2023-03-17T14:38:49.436Z,41.57
2023-03-17T14:41:19.432Z,41.55
2023-03-17T14:43:48.122Z,40.88
2023-03-17T14:46:17.767Z,39.99
2023-03-17T14:48:49.154Z,40.96
2023-03-17T14:51:26.375Z,39.51
2023-03-17T14:53:59.164Z,40.23
2023-03-17T14:56:32.631Z,38.40
2023-03-17T14:59:07.372Z,37.56
2023-03-17T15:01:38.852Z,38.72
2023-03-17T15:04:11.881Z,38.79
2023-03-17T15:06:49.311Z,39.31
2023-03-17T15:09:21.094Z,39.84
2023-03-17T15:11:49.592Z,40.73
2023-03-17T15:14:22.473Z,40.52
2023-03-17T15:16:52.463Z,41.00
2023-03-17T15:19:23.605Z,40.67
2023-03-17T15:21:51.721Z,41.15
2023-03-17T15:24:25.795Z,41.05
2023-03-17T15:27:01.136Z,41.61
2023-03-17T15:29:29.575Z,41.98
2023-03-17T15:32:04.711Z,42.78
2023-03-17T15:34:32.390Z,43.39
2023-03-17T15:37:00.604Z,43.34
2023-03-17T15:39:29.540Z,43.75
2023-03-17T15:41:57.495Z,44.82
2023-03-17T15:44:26.027Z,45.70
2023-03-17T15:46:54.472Z,46.70
2023-03-17T15:49:24.314Z,47.66
2023-03-17T15:51:53.694Z,48.64
2023-03-17T15:54:21.335Z,49.45
2023-03-17T15:56:50.651Z,49.82
2023-03-17T15:59:18.250Z,50.11
2023-03-17T16:01:46.850Z,50.76
2023-03-17T16:04:14.659Z,50.84
2023-03-17T16:06:42.487Z,51.18
2023-03-17T16:09:16.720Z,50.69
2023-03-17T16:11:44.843Z,50.53
2023-03-17T16:14:13.796Z,50.24
2023-03-17T16:16:45.719Z,50.13
2023-03-17T16:19:19.984Z,49.67
2023-03-17T16:21:48.385Z,49.84
2023-03-17T16:24:19.640Z,50.12
2023-03-17T16:26:47.558Z,50.49
2023-03-17T16:29:17.944Z,51.36
2023-03-17T16:31:49.078Z,51.93
2023-03-17T16:34:18.197Z,53.10
2023-03-17T16:36:46.286Z,53.66
2023-03-17T16:39:18.524Z,54.36
2023-03-17T16:41:47.963Z,55.05
2023-03-17T16:44:19.381Z,55.51
2023-03-17T16:46:47.175Z,55.81
2023-03-17T16:49:16.096Z,55.52
2023-03-17T16:51:44.866Z,55.30
2023-03-17T16:54:12.856Z,56.21
2023-03-17T16:56:42.329Z,56.26
2023-03-17T16:59:16.007Z,56.61
2023-03-17T17:01:45.326Z,56.56
2023-03-17T17:04:12.990Z,56.89
2023-03-17T17:06:40.681Z,57.55
2023-03-17T17:09:08.289Z,57.89
2023-03-17T17:11:35.911Z,58.39
2023-03-17T17:14:03.691Z,58.63
2023-03-17T17:16:33.900Z,58.81
2023-03-17T17:19:04.732Z,59.05
2023-03-17T17:21:33.189Z,59.22
2023-03-17T17:24:00.818Z,59.29
2023-03-17T17:26:28.673Z,60.09
2023-03-17T17:28:56.258Z,60.41
2023-03-17T17:31:24.046Z,61.01
2023-03-17T17:33:51.702Z,61.48
2023-03-17T17:36:20.818Z,61.63
2023-03-17T17:38:48.428Z,62.02
2023-03-17T17:41:17.104Z,62.47
2023-03-17T17:43:46.066Z,62.67
2023-03-17T17:46:17.681Z,62.91
2023-03-17T17:48:45.747Z,63.04
2023-03-17T17:51:13.826Z,63.32
2023-03-17T17:53:42.835Z,63.68
2023-03-17T17:56:15.381Z,64.43
2023-03-17T17:58:43.838Z,64.96
2023-03-17T18:01:13.656Z,66.01
2023-03-17T18:03:42.844Z,66.96
2023-03-17T18:06:13.171Z,67.50
2023-03-17T18:08:43.485Z,68.54
2023-03-17T18:11:11.926Z,68.52
2023-03-17T18:13:40.892Z,69.09
2023-03-17T18:16:10.522Z,69.44
2023-03-17T18:18:42.358Z,69.59
2023-03-17T18:21:10.909Z,70.29
2023-03-17T18:23:38.767Z,70.90
2023-03-17T18:26:08.476Z,70.56
2023-03-17T18:28:36.651Z,70.88
2023-03-17T18:31:07.727Z,71.00
2023-03-17T18:33:35.548Z,70.91
2023-03-17T18:36:05.927Z,71.00
2023-03-17T18:38:33.813Z,71.10
2023-03-17T18:41:02.334Z,71.34
2023-03-17T18:43:31.276Z,71.78
2023-03-17T18:45:59.202Z,72.25
2023-03-17T18:48:27.107Z,72.37
2023-03-17T18:50:55.008Z,73.12
2023-03-17T18:53:23.149Z,72.66
2023-03-17T18:55:50.879Z,72.58
2023-03-17T18:58:18.469Z,72.61
2023-03-17T19:00:47.484Z,72.42
2023-03-17T19:03:15.094Z,72.71
2023-03-17T19:05:42.795Z,72.95
2023-03-17T19:08:11.503Z,73.85
2023-03-17T19:10:39.242Z,73.84
2023-03-17T19:13:10.142Z,73.58
2023-03-17T19:15:37.985Z,74.11
2023-03-17T19:18:07.740Z,74.22
2023-03-17T19:20:36.691Z,74.10
2023-03-17T19:23:04.657Z,74.32
2023-03-17T19:25:32.616Z,74.01
2023-03-17T19:28:00.529Z,74.39
2023-03-17T19:30:28.302Z,74.49
2023-03-17T19:32:56.141Z,75.17
2023-03-17T19:35:25.125Z,76.53
2023-03-17T19:37:52.696Z,76.85
2023-03-17T19:40:20.451Z,76.57
2023-03-17T19:42:48.829Z,76.65
2023-03-17T19:45:16.605Z,77.25
2023-03-17T19:47:44.217Z,77.01
2023-03-17T19:50:13.511Z,78.43
2023-03-17T19:52:42.613Z,77.27
2023-03-17T19:55:10.730Z,76.46
2023-03-17T19:57:38.392Z,75.55
2023-03-17T20:00:08.832Z,74.60
2023-03-17T20:02:39.761Z,74.31
2023-03-17T20:05:08.470Z,73.96
2023-03-17T20:07:36.507Z,73.20
2023-03-17T20:10:07.643Z,73.55
2023-03-17T20:12:38.110Z,73.10
2023-03-17T20:15:07.617Z,71.36
2023-03-17T20:17:36.158Z,72.17
2023-03-17T20:20:03.952Z,72.85
2023-03-17T20:22:32.396Z,73.71
2023-03-17T20:25:00.048Z,75.24
2023-03-17T20:27:30.099Z,75.15
2023-03-17T20:29:58.596Z,74.79
2023-03-17T20:32:27.712Z,76.87
2023-03-17T20:34:55.810Z,78.18
2023-03-17T20:37:24.784Z,79.56
2023-03-17T20:39:54.191Z,79.66
2023-03-17T20:42:21.867Z,80.52
2023-03-17T20:44:53.016Z,80.00
2023-03-17T20:47:20.944Z,78.34
2023-03-17T20:49:48.778Z,78.95
2023-03-17T20:52:17.414Z,80.08
2023-03-17T20:54:45.557Z,79.88
2023-03-17T20:57:15.934Z,79.49
2023-03-17T20:59:45.138Z,80.01
2023-03-17T21:02:18.352Z,79.35
2023-03-17T21:04:48.743Z,79.44
2023-03-17T21:07:18.267Z,79.63
2023-03-17T21:09:47.076Z,79.25
2023-03-17T21:12:16.007Z,79.12
2023-03-17T21:14:44.157Z,79.76
2023-03-17T21:17:12.479Z,79.09
2023-03-17T21:19:41.690Z,77.48
2023-03-17T21:22:09.592Z,76.71
2023-03-17T21:24:39.692Z,75.26
2023-03-17T21:27:11.178Z,75.26
2023-03-17T21:29:39.891Z,75.62
2023-03-17T21:32:08.558Z,76.15
2023-03-17T21:34:37.746Z,74.40
2023-03-17T21:37:06.994Z,72.53
2023-03-17T21:39:36.102Z,72.26
2023-03-17T21:42:05.247Z,71.52
2023-03-17T21:44:33.077Z,71.15
2023-03-17T21:47:02.555Z,71.26
2023-03-17T21:49:30.278Z,71.56
2023-03-17T21:51:58.391Z,72.15
2023-03-17T21:54:28.329Z,71.59
2023-03-17T21:56:56.549Z,72.14
2023-03-17T21:59:24.851Z,72.73
2023-03-17T22:01:53.294Z,73.17
2023-03-17T22:04:20.917Z,73.40
2023-03-17T22:06:49.047Z,73.88
2023-03-17T22:09:19.117Z,74.11
2023-03-17T22:11:48.582Z,74.29
2023-03-17T22:14:19.906Z,74.63
2023-03-17T22:16:48.306Z,74.58
2023-03-17T22:19:17.809Z,74.66
2023-03-17T22:21:46.341Z,75.11
2023-03-17T22:24:14.410Z,74.98
2023-03-17T22:26:42.150Z,74.57
2023-03-17T22:29:11.362Z,74.45
2023-03-17T22:31:38.994Z,74.03
2023-03-17T22:34:07.362Z,74.23
2023-03-17T22:36:34.982Z,74.45
2023-03-17T22:39:02.853Z,74.78
2023-03-17T22:41:31.189Z,75.20
2023-03-17T22:43:59.469Z,75.31
2023-03-17T22:46:28.649Z,76.12
2023-03-17T22:48:56.664Z,76.74
2023-03-17T22:51:26.540Z,77.06
2023-03-17T22:53:54.866Z,78.58
2023-03-17T22:56:22.507Z,78.68
2023-03-17T22:58:50.723Z,78.89
2023-03-17T23:01:19.663Z,78.96
2023-03-17T23:03:48.742Z,78.35
2023-03-17T23:06:16.349Z,77.69
2023-03-17T23:08:45.810Z,76.83
2023-03-17T23:11:17.158Z,76.24
2023-03-17T23:13:45.919Z,75.01
2023-03-17T23:16:14.640Z,74.24
2023-03-17T23:18:46.105Z,74.53
2023-03-17T23:21:21.305Z,73.50
2023-03-17T23:23:49.546Z,73.35
2023-03-17T23:26:17.436Z,73.74
2023-03-17T23:28:46.399Z,74.83
2023-03-17T23:31:15.769Z,75.43
2023-03-17T23:33:43.923Z,74.92
2023-03-17T23:36:13.956Z,75.09
2023-03-17T23:38:44.548Z,75.53
2023-03-17T23:41:12.696Z,75.13
2023-03-17T23:43:41.455Z,75.51
2023-03-17T23:46:09.225Z,76.82
2023-03-17T23:48:37.877Z,77.84
2023-03-17T23:51:05.813Z,78.13
2023-03-17T23:53:33.990Z,79.36
2023-03-17T23:56:03.149Z,79.86
2023-03-17T23:58:31.980Z,79.45
